Time;durP1;ratioP1;P1;durP2;ratioP2;P2;SDS_P1;SDS_P2;PMS_P1;PMS_P2;Temp;Humidity;BMP_temperature;BMP_pressure;BME280_temperature;BME280_humidity;BME280_pressure;Samples;Min_cycle;Max_cycle;Signal;HPM_P1;HPM_P2
2022/12/22 03:27:36;;;;;;;9.05;6.80;;;;;;;1.27;79.78;100204.20;1702670;82;21013;-71
2022/12/22 03:30:03;;;;;;;8.75;6.70;;;;;;;1.28;79.82;100211.09;1702882;82;21953;-71
2022/12/22 03:32:29;;;;;;;8.35;6.62;;;;;;;1.30;79.90;100211.86;1698325;82;20953;-70
2022/12/22 03:34:56;;;;;;;8.35;6.10;;;;;;;1.32;79.99;100216.53;1705755;82;21009;-70
2022/12/22 03:37:22;;;;;;;8.95;6.60;;;;;;;1.35;80.06;100207.28;1705077;82;21439;-71
2022/12/22 03:39:49;;;;;;;9.05;6.30;;;;;;;1.38;80.16;100204.11;1707403;82;21005;-71
2022/12/22 03:47:45;;;;;;;8.25;6.33;;;;;;;1.49;80.33;100199.72;1704120;82;21441;-70
2022/12/22 03:50:11;;;;;;;8.00;6.28;;;;;;;1.52;80.33;100198.27;1689634;84;20995;-70
2022/12/22 03:52:39;;;;;;;8.08;6.30;;;;;;;1.53;80.35;100193.45;1684036;83;21084;-71
2022/12/22 03:55:06;;;;;;;7.85;6.28;;;;;;;1.54;80.35;100202.94;1701373;82;21858;-70
2022/12/22 03:57:33;;;;;;;9.58;6.35;;;;;;;1.56;80.40;100191.19;1705815;82;20971;-70
2022/12/22 03:59:59;;;;;;;8.70;6.62;;;;;;;1.58;80.45;100191.95;1716435;81;21044;-71
2022/12/22 04:02:25;;;;;;;8.50;6.00;;;;;;;1.59;80.46;100190.58;1714816;82;21043;-70
2022/12/22 04:04:52;;;;;;;8.10;6.22;;;;;;;1.62;80.49;100196.09;1713757;82;20997;-69
2022/12/22 04:07:18;;;;;;;7.17;5.78;;;;;;;1.63;80.51;100196.02;1723868;81;22345;-70
2022/12/22 04:15:15;;;;;;;8.18;6.28;;;;;;;1.65;80.54;100198.58;1710726;82;21007;-69
2022/12/22 04:17:42;;;;;;;6.95;5.62;;;;;;;1.63;80.54;100188.21;1711324;82;21020;-69
2022/12/22 04:20:09;;;;;;;9.95;6.15;;;;;;;1.65;80.52;100192.08;1714810;82;21943;-69
2022/12/22 04:22:36;;;;;;;8.30;6.17;;;;;;;1.64;80.54;100191.23;1715063;82;21068;-68
2022/12/22 04:25:04;;;;;;;7.78;6.47;;;;;;;1.65;80.57;100188.17;1690242;83;21075;-69
2022/12/22 04:27:31;;;;;;;8.43;6.40;;;;;;;1.65;80.55;100181.20;1710684;82;20973;-69
2022/12/22 04:29:57;;;;;;;8.30;6.67;;;;;;;1.65;80.51;100176.45;1713835;82;20991;-70
2022/12/22 04:32:23;;;;;;;8.30;6.45;;;;;;;1.63;80.52;100176.50;1712936;82;21865;-70
2022/12/22 04:34:50;;;;;;;9.85;6.87;;;;;;;1.62;80.52;100173.51;1714691;82;21033;-71
2022/12/22 04:37:17;;;;;;;8.15;6.60;;;;;;;1.61;80.56;100172.28;1713945;82;20999;-69
2022/12/22 04:39:43;;;;;;;7.95;6.50;;;;;;;1.61;80.61;100169.22;1715522;82;20965;-69
2022/12/22 04:42:10;;;;;;;9.15;6.65;;;;;;;1.61;80.59;100181.39;1683539;83;21505;-70
2022/12/22 04:44:36;;;;;;;7.97;6.83;;;;;;;1.60;80.63;100174.50;1704270;82;21890;-70
2022/12/22 04:47:02;;;;;;;8.18;6.33;;;;;;;1.60;80.62;100181.86;1702601;82;21141;-69
2022/12/22 04:49:30;;;;;;;9.75;6.87;;;;;;;1.60;80.60;100180.55;1709006;82;21494;-69
2022/12/22 04:51:57;;;;;;;8.00;6.42;;;;;;;1.58;80.58;100179.78;1701416;82;21042;-69
2022/12/22 04:54:23;;;;;;;10.23;6.75;;;;;;;1.58;80.54;100177.64;1682222;83;20983;-73
2022/12/22 04:56:50;;;;;;;8.68;6.50;;;;;;;1.55;80.54;100179.94;1708013;82;22914;-69
2022/12/22 04:59:16;;;;;;;9.43;6.50;;;;;;;1.55;80.50;100185.14;1714175;82;21032;-72
2022/12/22 05:01:43;;;;;;;8.63;6.42;;;;;;;1.53;80.53;100176.53;1704719;82;21568;-71
2022/12/22 05:04:09;;;;;;;8.55;6.70;;;;;;;1.53;80.50;100184.80;1656156;83;21440;-69
2022/12/22 05:06:36;;;;;;;10.03;6.90;;;;;;;1.53;80.50;100183.50;1713389;82;21616;-71
2022/12/22 05:09:03;;;;;;;7.53;6.50;;;;;;;1.52;80.47;100182.66;1716059;82;21884;-71
2022/12/22 05:11:29;;;;;;;7.97;6.62;;;;;;;1.52;80.42;100180.51;1706744;83;21009;-68
2022/12/22 05:13:56;;;;;;;8.55;6.83;;;;;;;1.51;80.38;100182.27;1711213;83;21034;-73
2022/12/22 05:16:23;;;;;;;8.45;6.80;;;;;;;1.49;80.38;100189.31;1704484;83;21420;-69
2022/12/22 05:18:49;;;;;;;9.15;7.05;;;;;;;1.47;80.34;100187.23;1706167;82;20947;-72
2022/12/22 05:21:19;;;;;;;9.48;6.53;;;;;;;1.46;80.33;100186.02;1714274;82;21914;-69
2022/12/22 05:23:46;;;;;;;8.83;6.47;;;;;;;1.43;80.31;100195.62;1710920;83;21411;-70
2022/12/22 05:26:13;;;;;;;9.65;6.97;;;;;;;1.41;80.32;100198.75;1714554;83;21471;-68
2022/12/22 05:28:42;;;;;;;10.20;6.90;;;;;;;1.42;80.33;100196.99;1711739;83;21041;-69
2022/12/22 05:31:15;;;;;;;9.30;7.12;;;;;;;1.41;80.36;100191.41;1667790;85;21608;-68
2022/12/22 05:33:42;;;;;;;9.05;6.95;;;;;;;1.39;80.37;100194.08;1709103;83;21793;-69
2022/12/22 05:36:08;;;;;;;9.05;7.15;;;;;;;1.38;80.39;100201.50;1708481;82;20965;-71
2022/12/22 05:38:35;;;;;;;7.72;6.47;;;;;;;1.41;80.42;100203.12;1704769;83;21005;-69
2022/12/22 05:41:01;;;;;;;10.05;7.05;;;;;;;1.40;80.39;100204.03;1715160;83;20981;-73
2022/12/22 05:43:28;;;;;;;9.10;6.78;;;;;;;1.38;80.38;100207.16;1706114;83;21049;-68
2022/12/22 05:45:54;;;;;;;9.23;6.67;;;;;;;1.39;80.36;100207.09;1708732;83;22282;-68
2022/12/22 05:48:20;;;;;;;8.65;6.28;;;;;;;1.38;80.38;100208.01;1678119;83;20971;-70
2022/12/22 05:50:47;;;;;;;9.43;7.10;;;;;;;1.38;80.37;100217.58;1703812;83;21027;-69
2022/12/22 05:53:14;;;;;;;9.53;6.55;;;;;;;1.36;80.37;100213.74;1704216;83;21064;-69
2022/12/22 05:55:41;;;;;;;8.33;6.62;;;;;;;1.37;80.33;100210.22;1713318;83;20954;-70
2022/12/22 05:58:07;;;;;;;8.40;7.05;;;;;;;1.36;80.30;100211.59;1680553;83;21522;-70
2022/12/22 06:00:34;;;;;;;9.08;6.60;;;;;;;1.35;80.30;100225.07;1701684;83;21583;-69
2022/12/22 06:03:01;;;;;;;8.58;7.12;;;;;;;1.34;80.27;100229.86;1712528;83;21372;-73
2022/12/22 06:05:27;;;;;;;9.13;6.35;;;;;;;1.33;80.25;100230.77;1705707;83;21043;-70
2022/12/22 06:07:53;;;;;;;9.53;6.60;;;;;;;1.33;80.24;100228.62;1710414;83;20957;-69
2022/12/22 06:10:20;;;;;;;8.93;6.65;;;;;;;1.31;80.24;100233.06;1710191;83;21826;-72
2022/12/22 06:12:47;;;;;;;10.30;7.40;;;;;;;1.30;80.27;100225.71;1712232;82;21462;-70
2022/12/22 06:15:14;;;;;;;8.88;7.40;;;;;;;1.29;80.28;100230.53;1716414;83;20967;-70
2022/12/22 06:17:41;;;;;;;11.38;8.70;;;;;;;1.29;80.32;100225.78;1715867;83;20963;-71
2022/12/22 06:20:08;;;;;;;9.58;6.92;;;;;;;1.28;80.31;100218.89;1712810;83;21168;-71
2022/12/22 06:22:35;;;;;;;11.08;8.05;;;;;;;1.29;80.32;100215.38;1710147;83;21792;-71
2022/12/22 06:25:03;;;;;;;10.05;7.67;;;;;;;1.29;80.35;100214.08;1708700;83;21386;-70
2022/12/22 06:27:30;;;;;;;10.65;8.40;;;;;;;1.28;80.41;100216.29;1696805;83;21032;-72
2022/12/22 06:29:56;;;;;;;10.50;6.87;;;;;;;1.30;80.47;100217.06;1709698;83;21070;-70
2022/12/22 06:32:29;;;;;;;9.08;7.33;;;;;;;1.30;80.49;100215.76;1713032;83;20960;-70
2022/12/22 06:34:56;;;;;;;12.35;8.80;;;;;;;1.30;80.51;100216.60;1691633;83;21939;-70
2022/12/22 06:37:23;;;;;;;11.45;8.70;;;;;;;1.32;80.51;100219.98;1704004;83;21011;-69
2022/12/22 06:39:50;;;;;;;12.73;8.30;;;;;;;1.34;80.48;100222.05;1689476;83;20963;-72
2022/12/22 06:45:07;;;;;;;10.88;8.53;;;;;;;1.36;80.39;100228.05;1708330;83;21459;-70
2022/12/22 06:47:34;;;;;;;9.68;6.67;;;;;;;1.39;80.38;100243.98;1714950;83;22714;-71
2022/12/22 06:50:07;;;;;;;10.63;7.85;;;;;;;1.40;80.30;100233.95;1715850;83;21052;-69
2022/12/22 06:52:34;;;;;;;9.43;7.47;;;;;;;1.41;80.23;100245.59;1710402;83;21077;-70
2022/12/22 06:55:05;;;;;;;10.00;7.33;;;;;;;1.42;80.20;100241.23;1712010;83;21173;-72
2022/12/22 06:57:29;;;;;;;9.18;7.03;;;;;;;1.44;80.12;100244.61;1716226;83;21019;-70
2022/12/22 06:59:56;;;;;;;9.35;7.03;;;;;;;1.45;80.04;100250.23;1706257;83;21933;-71
2022/12/22 07:02:23;;;;;;;9.63;7.00;;;;;;;1.47;79.93;100251.00;1701374;83;21156;-71
2022/12/22 07:04:50;;;;;;;9.63;6.67;;;;;;;1.48;79.84;100253.15;1709385;82;21058;-70
2022/12/22 07:07:17;;;;;;;9.68;6.50;;;;;;;1.50;79.71;100252.62;1712473;83;21017;-70
2022/12/22 07:09:44;;;;;;;8.90;6.60;;;;;;;1.51;79.61;100241.30;1698710;82;21366;-70
2022/12/22 07:12:10;;;;;;;11.08;8.68;;;;;;;1.54;79.52;100247.20;1690636;83;22624;-70
2022/12/22 07:14:37;;;;;;;12.93;9.70;;;;;;;1.57;79.42;100248.84;1680069;84;21035;-70
2022/12/22 07:17:04;;;;;;;17.00;11.22;;;;;;;1.60;79.29;100254.74;1693597;84;21656;-70
2022/12/22 07:19:31;;;;;;;13.80;9.98;;;;;;;1.62;79.11;100250.30;1698472;83;21590;-71
2022/12/22 07:21:57;;;;;;;14.45;10.08;;;;;;;1.63;78.95;100253.30;1697421;84;21000;-71
2022/12/22 07:24:24;;;;;;;15.93;11.25;;;;;;;1.64;78.80;100251.53;1688434;83;22530;-71
2022/12/22 07:26:51;;;;;;;13.20;8.85;;;;;;;1.65;78.71;100238.48;1692488;83;21056;-71
2022/12/22 07:29:18;;;;;;;11.35;7.92;;;;;;;1.66;78.53;100250.58;1693427;83;21061;-72
2022/12/22 07:31:45;;;;;;;11.25;8.45;;;;;;;1.67;78.37;100250.97;1692147;83;21134;-72
2022/12/22 07:34:12;;;;;;;9.63;7.37;;;;;;;1.68;78.16;100250.50;1694756;82;20957;-71
2022/12/22 07:36:38;;;;;;;9.98;7.40;;;;;;;1.68;77.95;100251.80;1698930;82;21771;-70
2022/12/22 07:39:05;;;;;;;8.78;6.97;;;;;;;1.68;77.78;100263.06;1692150;84;21075;-71
2022/12/22 07:44:16;;;;;;;9.53;6.92;;;;;;;1.71;77.59;100256.86;1693779;83;21434;-70
2022/12/22 07:46:43;;;;;;;9.73;7.15;;;;;;;1.75;77.42;100260.20;1689355;83;21086;-73
2022/12/22 07:51:56;;;;;;;9.43;7.30;;;;;;;1.80;77.17;100265.56;1691558;83;21036;-71
2022/12/22 07:54:23;;;;;;;8.93;6.55;;;;;;;1.85;77.03;100275.33;1694842;83;20966;-70
2022/12/22 07:56:49;;;;;;;10.32;6.78;;;;;;;1.91;76.88;100272.44;1696613;83;21062;-70
2022/12/22 07:59:16;;;;;;;10.32;7.58;;;;;;;1.95;76.58;100276.61;1695254;84;21012;-70
2022/12/22 08:01:44;;;;;;;11.05;7.75;;;;;;;1.97;76.24;100278.68;1690211;82;21906;-70
2022/12/22 08:04:12;;;;;;;13.08;9.85;;;;;;;2.00;76.13;100282.44;1694106;83;21037;-69
2022/12/22 08:06:38;;;;;;;13.20;9.05;;;;;;;2.05;75.99;100280.09;1686610;83;21013;-69
2022/12/22 08:09:06;;;;;;;12.50;8.65;;;;;;;2.09;75.88;100282.48;1689882;83;21479;-69
2022/12/22 08:11:33;;;;;;;16.02;10.43;;;;;;;2.14;75.67;100284.43;1693057;83;20972;-67
2022/12/22 08:13:59;;;;;;;14.40;9.70;;;;;;;2.20;75.42;100277.61;1695188;83;21925;-66
2022/12/22 08:16:26;;;;;;;14.18;9.55;;;;;;;2.27;75.11;100270.36;1690936;83;21020;-69
2022/12/22 08:18:52;;;;;;;12.10;8.63;;;;;;;2.35;74.78;100269.55;1692667;83;21096;-69
2022/12/22 08:21:18;;;;;;;11.88;7.97;;;;;;;2.43;74.33;100263.52;1694783;83;20992;-72
2022/12/22 08:23:45;;;;;;;11.43;8.05;;;;;;;2.53;73.81;100256.95;1687400;82;21094;-69
2022/12/22 08:26:29;;;;;;;11.80;8.70;;;;;;;2.63;73.55;100259.11;1690561;84;22559;-69
2022/12/22 08:29:18;;;;;;;10.45;7.92;;;;;;;2.73;73.30;100254.67;1693501;83;21055;-68
2022/12/22 08:31:45;;;;;;;11.45;8.35;;;;;;;2.83;72.91;100257.21;1683466;84;21045;-68
2022/12/22 08:34:14;;;;;;;12.30;8.95;;;;;;;2.90;72.21;100255.62;1692431;84;21012;-69
2022/12/22 08:36:48;;;;;;;12.98;9.63;;;;;;;2.91;71.82;100255.53;1687681;84;21375;-69
2022/12/22 08:39:15;;;;;;;12.33;9.13;;;;;;;2.91;71.45;100261.21;1693380;82;21935;-69
2022/12/22 08:41:50;;;;;;;11.48;8.65;;;;;;;2.90;71.00;100256.45;1686488;84;20985;-68
2022/12/22 08:44:27;;;;;;;10.40;7.62;;;;;;;2.87;70.46;100250.91;1688039;83;20992;-70
2022/12/22 08:46:55;;;;;;;11.60;8.35;;;;;;;2.86;70.07;100240.55;1694435;83;21071;-71
2022/12/22 08:49:22;;;;;;;12.05;8.75;;;;;;;2.85;69.68;100238.41;1685347;83;21012;-82
2022/12/22 08:51:49;;;;;;;12.20;8.60;;;;;;;2.83;69.43;100231.59;1685492;84;21938;-70
2022/12/22 08:54:16;;;;;;;10.50;7.72;;;;;;;2.81;69.42;100234.73;1696120;84;21479;-69
2022/12/22 08:56:42;;;;;;;11.35;7.87;;;;;;;2.79;69.39;100230.87;1696203;83;20953;-82
2022/12/22 08:59:10;;;;;;;11.95;8.13;;;;;;;2.77;69.46;100228.81;1694456;83;21183;-71
2022/12/22 09:01:38;;;;;;;12.18;8.33;;;;;;;2.77;69.46;100234.48;1692720;83;21063;-72
2022/12/22 09:04:06;;;;;;;12.30;9.60;;;;;;;2.75;69.49;100227.20;1695847;83;21941;-71
2022/12/22 09:06:34;;;;;;;11.57;8.33;;;;;;;2.74;69.50;100221.15;1675913;83;21036;-70
2022/12/22 09:09:02;;;;;;;11.25;8.68;;;;;;;2.73;69.52;100225.98;1697592;83;21040;-70
2022/12/22 09:11:29;;;;;;;12.25;8.28;;;;;;;2.72;69.58;100220.39;1718477;83;20988;-69
2022/12/22 09:13:57;;;;;;;11.57;8.58;;;;;;;2.72;69.68;100216.94;1690501;83;21058;-68
2022/12/22 09:16:25;;;;;;;10.08;8.13;;;;;;;2.75;69.82;100221.53;1717575;83;22573;-69
2022/12/22 09:18:52;;;;;;;12.23;8.75;;;;;;;2.76;69.86;100218.00;1723032;81;20999;-70
2022/12/22 09:21:18;;;;;;;11.90;9.35;;;;;;;2.76;70.07;100238.02;1718490;82;21025;-69
2022/12/22 09:23:45;;;;;;;12.03;8.20;;;;;;;2.73;70.18;100231.66;1711712;83;21104;-72
2022/12/22 09:26:14;;;;;;;11.50;8.48;;;;;;;2.72;70.30;100236.50;1701420;83;20985;-70
2022/12/22 09:28:40;;;;;;;10.48;8.30;;;;;;;2.71;70.45;100233.05;1709890;82;21908;-72
2022/12/22 09:31:07;;;;;;;10.08;8.38;;;;;;;2.72;70.48;100236.03;1710922;82;21497;-69
2022/12/22 09:33:35;;;;;;;9.58;7.22;;;;;;;2.72;70.56;100228.67;1698062;83;21334;-69
2022/12/22 09:36:10;;;;;;;11.25;8.23;;;;;;;2.72;70.68;100229.52;1688878;83;21015;-72
2022/12/22 09:38:38;;;;;;;11.68;8.60;;;;;;;2.71;70.79;100223.92;1713349;83;21007;-69
2022/12/22 09:41:19;;;;;;;12.10;8.80;;;;;;;2.71;70.95;100201.75;1712620;82;21798;-67
2022/12/22 09:43:46;;;;;;;11.25;8.70;;;;;;;2.69;71.08;100206.17;1712750;83;21458;-67
2022/12/22 09:46:21;;;;;;;10.90;8.40;;;;;;;2.69;71.30;100212.70;1713409;82;20989;-68
2022/12/22 09:48:48;;;;;;;11.93;8.10;;;;;;;2.71;71.48;100212.19;1713642;83;21016;-67
2022/12/22 09:51:16;;;;;;;11.30;8.90;;;;;;;2.74;71.70;100216.39;1691282;83;21090;-68
2022/12/22 09:53:45;;;;;;;10.53;7.83;;;;;;;2.79;71.94;100210.47;1686233;84;21837;-67
2022/12/22 09:56:14;;;;;;;9.73;7.50;;;;;;;2.84;72.13;100218.93;1698481;82;20978;-67
2022/12/22 09:58:41;;;;;;;9.90;7.83;;;;;;;2.87;72.25;100209.63;1714577;83;21006;-69
2022/12/22 10:01:17;;;;;;;10.72;8.38;;;;;;;2.92;72.35;100207.66;1714544;82;21486;-69
2022/12/22 10:03:55;;;;;;;11.88;8.25;;;;;;;3.01;72.30;100203.73;1708984;82;21074;-71
2022/12/22 10:06:45;;;;;;;10.08;7.60;;;;;;;3.09;72.26;100216.78;1707297;82;21861;-69
2022/12/22 10:09:26;;;;;;;10.08;8.00;;;;;;;3.15;72.21;100203.86;1680793;83;20955;-71
2022/12/22 10:11:58;;;;;;;11.45;8.00;;;;;;;3.22;72.03;100210.45;1677184;83;20957;-72
2022/12/22 10:14:40;;;;;;;10.78;7.37;;;;;;;3.27;71.92;100216.73;1702875;82;21044;-75
2022/12/22 10:17:31;;;;;;;10.82;7.83;;;;;;;3.30;71.78;100216.13;1707277;82;21013;-70
2022/12/22 10:20:15;;;;;;;9.35;7.55;;;;;;;3.36;71.80;100207.12;1709358;82;21906;-69
2022/12/22 10:22:55;;;;;;;9.33;7.30;;;;;;;3.34;71.48;100208.97;1699973;82;20955;-69
2022/12/22 10:25:33;;;;;;;10.15;8.03;;;;;;;3.26;71.47;100209.36;1713816;82;20952;-68
2022/12/22 10:28:05;;;;;;;9.53;7.67;;;;;;;3.22;71.49;100207.85;1698449;82;21019;-69
2022/12/22 10:30:35;;;;;;;11.05;7.78;;;;;;;3.13;71.58;100200.49;1703590;82;21032;-69
2022/12/22 10:33:08;;;;;;;10.53;7.58;;;;;;;3.08;71.66;100203.32;1707476;82;21836;-70
2022/12/22 10:35:53;;;;;;;10.48;7.80;;;;;;;3.05;71.78;100207.41;1712243;82;21089;-71
2022/12/22 10:38:31;;;;;;;10.35;7.33;;;;;;;3.03;71.89;100197.97;1739101;81;20997;-75
2022/12/22 10:41:14;;;;;;;9.28;7.35;;;;;;;3.06;72.07;100203.87;1710728;82;21103;-71
2022/12/22 10:43:49;;;;;;;9.73;7.47;;;;;;;3.18;72.26;100200.23;1705382;82;20978;-69
2022/12/22 10:46:16;;;;;;;9.88;7.00;;;;;;;3.32;72.11;100194.70;1711099;82;22859;-70
2022/12/22 10:48:43;;;;;;;10.50;7.40;;;;;;;3.43;71.95;100186.30;1708435;82;20974;-78
2022/12/22 10:51:12;;;;;;;10.13;7.28;;;;;;;3.50;71.77;100181.61;1690386;83;20996;-70
2022/12/22 10:53:49;;;;;;;8.60;6.80;;;;;;;3.58;71.69;100185.96;1704173;82;21116;-69
2022/12/22 10:56:34;;;;;;;8.48;7.12;;;;;;;3.58;71.26;100180.73;1712319;82;21531;-69
2022/12/22 10:59:10;;;;;;;11.90;8.73;;;;;;;3.53;71.11;100181.43;1710160;82;21919;-73
2022/12/22 11:01:44;;;;;;;9.78;7.60;;;;;;;3.49;71.15;100176.01;1706801;82;21058;-68
2022/12/22 11:04:28;;;;;;;12.93;9.33;;;;;;;3.45;71.16;100178.76;1712944;82;21513;-69
2022/12/22 11:06:58;;;;;;;10.20;8.55;;;;;;;3.44;71.23;100171.85;1708190;82;21039;-71
2022/12/22 11:09:31;;;;;;;9.38;7.97;;;;;;;3.45;71.22;100170.09;1708180;82;21015;-68
2022/12/22 11:12:12;;;;;;;10.20;7.53;;;;;;;3.44;71.30;100161.88;1713248;82;22627;-70
2022/12/22 11:15:14;;;;;;;9.38;7.22;;;;;;;3.42;71.28;100165.87;1701921;82;21096;-68
2022/12/22 11:18:01;;;;;;;9.38;6.95;;;;;;;3.38;71.33;100170.89;1709723;82;20997;-71
2022/12/22 11:20:59;;;;;;;11.12;7.08;;;;;;;3.33;71.37;100172.05;1703636;82;21047;-69
2022/12/22 11:23:43;;;;;;;8.23;6.55;;;;;;;3.23;71.42;100162.55;1674380;84;21037;-70
2022/12/22 11:26:44;;;;;;;;;;;;;;;3.16;71.57;100158.11;1717271;81;22057;-71
2022/12/22 11:29:39;;;;;;;8.73;6.60;;;;;;;3.11;71.73;100161.44;1719845;81;20171;-71
2022/12/22 11:32:38;;;;;;;10.10;6.80;;;;;;;3.06;71.91;100162.12;1718026;82;21481;-70
2022/12/22 11:35:17;;;;;;;10.18;7.08;;;;;;;3.04;72.08;100154.00;1699442;83;21106;-71
2022/12/22 11:38:23;;;;;;;8.73;7.20;;;;;;;3.07;72.22;100158.59;1707423;82;21087;-69
2022/12/22 11:40:56;;;;;;;10.23;8.08;;;;;;;3.09;72.28;100152.01;1706874;82;21560;-69
2022/12/22 11:43:38;;;;;;;12.63;10.40;;;;;;;3.10;72.37;100155.00;1707477;82;21050;-70
2022/12/22 11:46:31;;;;;;;15.20;12.05;;;;;;;3.11;72.38;100141.86;1705049;82;21082;-71
2022/12/22 11:49:35;;;;;;;12.93;9.73;;;;;;;3.13;72.43;100142.63;1700902;82;21086;-73
2022/12/22 11:52:24;;;;;;;;;;;;;;;3.16;72.37;100145.06;1710120;82;21094;-73
2022/12/22 11:55:18;;;;;;;15.05;11.08;;;;;;;3.19;72.38;100156.28;1711860;82;21910;-72
2022/12/22 11:58:24;;;;;;;15.35;11.60;;;;;;;3.16;72.34;100143.75;1700828;82;29184;-74
2022/12/22 12:01:22;;;;;;;13.20;9.40;;;;;;;3.19;72.38;100145.38;1711065;82;21005;-73
2022/12/22 12:04:45;;;;;;;11.90;8.60;;;;;;;3.21;72.41;100144.83;1705083;83;21081;-73
2022/12/22 12:07:40;;;;;;;11.85;8.13;;;;;;;3.25;72.42;100141.13;1707128;82;21122;-72
2022/12/22 12:10:19;;;;;;;14.75;10.43;;;;;;;3.32;72.42;100140.34;1646787;86;22712;-71
2022/12/22 12:13:28;;;;;;;15.88;10.95;;;;;;;3.32;72.24;100142.95;1642978;85;21511;-71
2022/12/22 12:16:17;;;;;;;13.38;9.88;;;;;;;3.30;72.22;100144.34;1670575;84;21064;-74
2022/12/22 12:18:55;;;;;;;15.53;11.08;;;;;;;3.28;72.25;100148.81;1673275;84;21092;-71
2022/12/22 12:21:40;;;;;;;11.55;9.25;;;;;;;3.27;72.28;100154.92;1687349;83;21083;-72
2022/12/22 12:24:53;;;;;;;10.82;8.10;;;;;;;3.24;72.28;100155.56;1681197;84;21859;-71
2022/12/22 12:27:38;;;;;;;12.63;9.40;;;;;;;3.19;72.34;100151.91;1666365;84;21076;-72
2022/12/22 12:30:19;;;;;;;10.70;8.50;;;;;;;3.14;72.45;100151.29;1696327;83;21056;-72
2022/12/22 12:33:04;;;;;;;11.70;9.30;;;;;;;3.11;72.54;100144.47;1672297;84;21518;-73
2022/12/22 12:35:50;;;;;;;10.80;8.00;;;;;;;3.09;72.61;100146.79;1689252;84;21067;-73
2022/12/22 12:38:30;;;;;;;10.50;8.38;;;;;;;3.04;72.72;100144.41;1695449;84;21885;-73
2022/12/22 12:41:14;;;;;;;8.63;6.72;;;;;;;3.00;72.83;100150.72;1695599;84;21275;-73
2022/12/22 12:43:43;;;;;;;8.23;6.92;;;;;;;2.98;72.96;100147.78;1699095;84;21048;-71
2022/12/22 12:46:52;;;;;;;11.18;8.43;;;;;;;2.98;73.12;100143.86;1671065;85;21120;-70
2022/12/22 12:49:39;;;;;;;9.30;7.95;;;;;;;2.97;73.14;100149.55;1687833;82;21115;-72
2022/12/22 12:52:09;;;;;;;9.58;6.87;;;;;;;2.96;73.26;100148.33;1691659;84;21973;-70
2022/12/22 12:54:46;;;;;;;7.45;6.20;;;;;;;2.95;73.31;100152.70;1693227;84;21523;-72
2022/12/22 12:57:29;;;;;;;8.38;6.37;;;;;;;2.95;73.37;100148.79;1649693;84;21104;-71
2022/12/22 12:59:58;;;;;;;8.45;6.95;;;;;;;2.96;73.37;100146.56;1694603;84;21470;-75
2022/12/22 13:02:34;;;;;;;9.08;6.90;;;;;;;2.95;73.37;100141.42;1699144;83;20997;-74
2022/12/22 13:05:12;;;;;;;10.23;6.67;;;;;;;2.94;73.40;100140.58;1696158;84;21907;-71
2022/12/22 13:08:07;;;;;;;8.85;6.30;;;;;;;2.94;73.42;100142.35;1694891;83;21648;-70
2022/12/22 13:10:55;;;;;;;8.48;6.58;;;;;;;2.93;73.46;100143.28;1687343;84;21052;-74
2022/12/22 13:13:28;;;;;;;9.45;6.83;;;;;;;2.90;73.50;100146.05;1696508;83;21061;-75
2022/12/22 13:16:06;;;;;;;8.50;7.47;;;;;;;2.89;73.53;100149.09;1695241;83;21017;-73
2022/12/22 13:18:42;;;;;;;9.73;7.55;;;;;;;2.85;73.53;100143.20;1697710;84;21875;-73
2022/12/22 13:21:24;;;;;;;9.13;6.90;;;;;;;2.84;73.60;100139.38;1702739;82;21017;-71
2022/12/22 13:24:16;;;;;;;9.13;6.83;;;;;;;2.80;73.65;100141.77;1700946;83;21033;-69
2022/12/22 13:26:43;;;;;;;7.35;6.08;;;;;;;2.78;73.73;100144.89;1688004;84;21013;-77
2022/12/22 13:29:40;;;;;;;7.60;6.25;;;;;;;2.75;73.81;100141.14;1698623;84;21038;-71
2022/12/22 13:32:32;;;;;;;11.12;7.62;;;;;;;2.70;73.90;100142.70;1697235;84;21919;-70
2022/12/22 13:35:22;;;;;;;7.42;6.53;;;;;;;2.68;73.96;100144.97;1662513;84;21001;-71
2022/12/22 13:37:50;;;;;;;9.38;6.85;;;;;;;2.64;74.06;100149.52;1695990;84;21084;-73
2022/12/22 13:40:23;;;;;;;7.70;6.90;;;;;;;2.59;74.14;100149.73;1698377;82;21066;-74
2022/12/22 13:43:02;;;;;;;11.30;7.37;;;;;;;2.59;74.23;100148.88;1696223;83;21563;-76
2022/12/22 13:45:53;;;;;;;7.78;6.28;;;;;;;2.55;74.27;100144.30;1673433;84;22254;-71
2022/12/22 13:48:31;;;;;;;8.40;6.62;;;;;;;2.51;74.42;100151.90;1676908;84;21041;-71
2022/12/22 13:51:04;;;;;;;8.53;6.58;;;;;;;2.46;74.56;100155.18;1699530;83;21612;-70
2022/12/22 13:53:37;;;;;;;8.30;6.35;;;;;;;2.44;74.68;100160.94;1700802;83;21113;-71
2022/12/22 13:56:07;;;;;;;8.53;6.60;;;;;;;2.42;74.69;100164.55;1699020;84;37214;-70
2022/12/22 13:58:37;;;;;;;7.78;6.70;;;;;;;2.40;74.77;100159.84;1671084;84;21950;-72
2022/12/22 14:01:13;;;;;;;9.20;7.45;;;;;;;2.38;74.85;100160.38;1687162;84;21090;-73
2022/12/22 14:03:56;;;;;;;9.35;7.50;;;;;;;2.36;74.95;100160.92;1689565;84;21195;-76
2022/12/22 14:06:37;;;;;;;10.58;7.97;;;;;;;2.34;75.04;100164.91;1675106;84;22253;-71
2022/12/22 14:09:26;;;;;;;10.55;7.92;;;;;;;2.31;75.11;100161.13;1675764;83;21063;-72
2022/12/22 14:12:07;;;;;;;12.65;9.20;;;;;;;2.29;75.22;100163.81;1694561;83;21833;-71
2022/12/22 14:14:39;;;;;;;13.05;8.85;;;;;;;2.28;75.32;100162.59;1691209;84;21451;-71
2022/12/22 14:17:36;;;;;;;9.63;8.05;;;;;;;2.27;75.43;100170.88;1690134;84;21124;-70
2022/12/22 14:20:35;;;;;;;10.28;8.08;;;;;;;2.27;75.52;100170.88;1677430;85;21099;-71
2022/12/22 14:23:21;;;;;;;10.43;8.75;;;;;;;2.27;75.60;100163.05;1672025;84;21032;-74
2022/12/22 14:25:49;;;;;;;10.32;8.23;;;;;;;2.27;75.77;100162.21;1690578;83;21836;-76
2022/12/22 14:28:26;;;;;;;11.57;8.43;;;;;;;2.27;75.90;100163.52;1667588;84;21008;-75
2022/12/22 14:30:58;;;;;;;12.55;8.33;;;;;;;2.25;76.01;100158.38;1686583;84;20972;-76
2022/12/22 14:33:31;;;;;;;9.00;7.28;;;;;;;2.27;76.09;100158.30;1693228;83;21044;-74
2022/12/22 14:36:22;;;;;;;9.20;7.45;;;;;;;2.28;76.20;100152.17;1693556;84;21638;-74
2022/12/22 14:38:55;;;;;;;13.18;9.00;;;;;;;2.28;76.28;100160.83;1694325;83;21893;-75
2022/12/22 14:41:43;;;;;;;13.88;10.38;;;;;;;2.27;76.34;100155.70;1694210;83;21124;-75
2022/12/22 14:44:31;;;;;;;21.40;14.35;;;;;;;2.29;76.37;100157.77;1694405;83;21459;-75
2022/12/22 14:47:16;;;;;;;17.87;13.05;;;;;;;2.29;76.47;100161.21;1692575;83;21984;-75
2022/12/22 14:49:51;;;;;;;;;;;;;;;2.29;76.54;100155.16;1696808;83;21070;-73
2022/12/22 14:52:26;;;;;;;11.88;8.70;;;;;;;2.27;76.58;100144.81;1694645;83;21916;-76
2022/12/22 14:54:55;;;;;;;8.48;6.78;;;;;;;2.24;76.64;100139.77;1688392;83;20949;-73
2022/12/22 14:57:33;;;;;;;8.23;6.87;;;;;;;2.22;76.74;100133.78;1692167;83;21023;-71
2022/12/22 15:00:11;;;;;;;10.60;8.78;;;;;;;2.22;76.81;100138.13;1695199;83;21017;-72
2022/12/22 15:02:39;;;;;;;12.95;10.00;;;;;;;2.24;76.90;100142.83;1667093;84;21056;-74
2022/12/22 15:05:31;;;;;;;12.70;9.70;;;;;;;2.23;76.94;100142.45;1677218;83;21080;-71
2022/12/22 15:07:58;;;;;;;10.53;8.50;;;;;;;2.22;77.02;100132.48;1694708;83;21046;-72
2022/12/22 15:10:26;;;;;;;9.65;6.78;;;;;;;2.22;77.07;100114.67;1697832;84;21090;-72
2022/12/22 15:12:57;;;;;;;7.53;6.17;;;;;;;2.22;77.11;100115.55;1697038;83;21144;-70
2022/12/22 15:15:24;;;;;;;8.88;6.25;;;;;;;2.22;77.18;100113.38;1696192;83;21538;-70
2022/12/22 15:17:52;;;;;;;8.70;6.78;;;;;;;2.23;77.25;100119.84;1675389;84;21793;-73
2022/12/22 15:20:21;;;;;;;9.58;6.87;;;;;;;2.23;77.31;100117.69;1694097;83;21127;-71
2022/12/22 15:22:48;;;;;;;9.05;6.30;;;;;;;2.23;77.36;100126.81;1702033;82;21084;-72
2022/12/22 15:25:17;;;;;;;8.13;6.65;;;;;;;2.24;77.42;100131.95;1701606;84;21044;-73
2022/12/22 15:27:44;;;;;;;8.70;6.72;;;;;;;2.25;77.46;100129.72;1676467;84;21084;-72
2022/12/22 15:30:13;;;;;;;7.37;6.33;;;;;;;2.26;77.53;100131.41;1698594;82;21739;-72
2022/12/22 15:32:40;;;;;;;8.80;6.62;;;;;;;2.26;77.59;100143.13;1699616;83;21045;-73
2022/12/22 15:35:29;;;;;;;9.03;7.28;;;;;;;2.27;77.68;100138.76;1702264;84;21119;-74
2022/12/22 15:37:56;;;;;;;9.83;7.05;;;;;;;2.28;77.76;100137.38;1703305;82;21047;-75
2022/12/22 15:40:23;;;;;;;9.45;7.40;;;;;;;2.32;77.86;100143.73;1705310;83;21108;-70
2022/12/22 15:42:49;;;;;;;10.18;7.47;;;;;;;2.34;77.92;100136.70;1701858;82;21893;-71
2022/12/22 15:45:17;;;;;;;10.50;7.83;;;;;;;2.36;77.98;100131.80;1701800;84;21044;-70